createdAt,value
2022-12-05T00:00:35.962Z,8.88
2022-12-05T00:03:05.700Z,8.00
2022-12-05T00:05:32.367Z,8.25
2022-12-05T00:07:59.012Z,9.82
2022-12-05T00:10:25.672Z,9.35
2022-12-05T00:12:52.447Z,9.30
2022-12-05T00:15:19.317Z,8.75
2022-12-05T00:17:45.992Z,9.60
2022-12-05T00:20:12.669Z,8.40
2022-12-05T00:22:40.506Z,8.25
2022-12-05T00:25:08.213Z,8.45
2022-12-05T00:27:35.276Z,9.50
2022-12-05T00:30:02.300Z,9.43
2022-12-05T00:32:31.229Z,8.23
2022-12-05T00:34:57.861Z,8.07
2022-12-05T00:37:24.887Z,8.18
2022-12-05T00:39:51.520Z,7.53
2022-12-05T00:42:18.183Z,7.38
2022-12-05T00:44:44.842Z,7.32
2022-12-05T00:47:11.535Z,7.30
2022-12-05T00:49:38.210Z,7.88
2022-12-05T00:52:04.972Z,8.00
2022-12-05T00:54:31.621Z,7.55
2022-12-05T00:56:58.235Z,8.45
2022-12-05T00:59:24.913Z,9.60
2022-12-05T01:01:52.374Z,8.65
2022-12-05T01:04:22.723Z,9.00
2022-12-05T01:06:50.867Z,8.55
2022-12-05T01:09:20.494Z,7.90
2022-12-05T01:11:48.194Z,8.80
2022-12-05T01:14:18.045Z,8.68
2022-12-05T01:16:46.534Z,8.32
2022-12-05T01:19:16.619Z,8.45
2022-12-05T01:21:43.595Z,8.40
2022-12-05T01:24:11.575Z,7.93
2022-12-05T01:26:39.911Z,8.45
2022-12-05T01:29:06.756Z,8.80
2022-12-05T01:31:36.137Z,9.20
2022-12-05T01:34:06.232Z,8.60
2022-12-05T01:36:33.411Z,8.05
2022-12-05T01:39:00.514Z,9.05
2022-12-05T01:41:30.932Z,8.05
2022-12-05T01:44:14.604Z,8.23
2022-12-05T01:46:47.714Z,8.57
2022-12-05T01:49:19.099Z,8.77
2022-12-05T01:51:50.468Z,9.63
2022-12-05T01:54:18.795Z,8.98
2022-12-05T01:56:53.285Z,8.35
2022-12-05T01:59:22.833Z,8.27
2022-12-05T02:01:49.705Z,8.05
2022-12-05T02:04:16.764Z,10.13
2022-12-05T02:06:43.647Z,8.02
2022-12-05T02:09:10.276Z,8.43
2022-12-05T02:11:47.151Z,8.68
2022-12-05T02:14:36.595Z,9.07
2022-12-05T02:17:03.223Z,9.15
2022-12-05T02:20:03.528Z,10.07
2022-12-05T02:23:00.645Z,9.35
2022-12-05T02:25:43.464Z,10.80
2022-12-05T02:28:38.091Z,10.60
2022-12-05T02:31:13.591Z,10.93
2022-12-05T02:33:53.376Z,11.43
2022-12-05T02:36:21.031Z,10.65
2022-12-05T02:39:04.841Z,10.60
2022-12-05T02:41:40.751Z,11.00
2022-12-05T02:44:16.175Z,11.38
2022-12-05T02:46:46.419Z,10.63
2022-12-05T02:49:19.097Z,11.00
2022-12-05T02:51:50.402Z,9.95
2022-12-05T02:54:21.317Z,11.65
2022-12-05T02:56:49.680Z,10.75
2022-12-05T02:59:22.862Z,11.30
2022-12-05T03:01:50.273Z,10.77
2022-12-05T03:04:20.174Z,11.02
2022-12-05T03:06:54.452Z,12.43
2022-12-05T03:09:40.237Z,11.55
2022-12-05T03:12:13.167Z,11.43
2022-12-05T03:14:46.408Z,12.27
2022-12-05T03:17:19.751Z,13.27
2022-12-05T03:20:01.574Z,12.45
2022-12-05T03:22:33.315Z,11.70
2022-12-05T03:25:02.389Z,12.60
2022-12-05T03:27:32.850Z,11.10
2022-12-05T03:30:07.792Z,12.30
2022-12-05T03:32:50.624Z,11.43
2022-12-05T03:35:37.617Z,13.45
2022-12-05T03:40:40.517Z,15.68
2022-12-05T03:43:14.639Z,17.05
2022-12-05T03:45:49.002Z,17.20
2022-12-05T03:48:27.529Z,18.27
2022-12-05T03:50:55.859Z,17.40
2022-12-05T03:53:28.233Z,16.48
2022-12-05T03:56:07.767Z,17.25
2022-12-05T03:58:46.952Z,15.88
2022-12-05T04:01:16.782Z,16.52
2022-12-05T04:03:51.798Z,16.25
2022-12-05T04:06:24.729Z,16.83
2022-12-05T04:08:57.610Z,15.63
2022-12-05T04:11:31.456Z,16.33
2022-12-05T04:14:15.433Z,16.50
2022-12-05T04:17:05.217Z,17.23
2022-12-05T04:20:02.101Z,16.08
2022-12-05T04:22:29.381Z,16.55
2022-12-05T04:25:18.969Z,16.67
2022-12-05T04:28:01.992Z,15.32
2022-12-05T04:30:37.082Z,15.32
2022-12-05T04:33:15.334Z,16.25
2022-12-05T04:35:45.277Z,13.90
2022-12-05T04:38:35.415Z,14.93
2022-12-05T04:41:06.620Z,14.70
2022-12-05T04:43:37.054Z,13.68
2022-12-05T04:46:07.477Z,14.68
2022-12-05T04:48:39.038Z,15.18
2022-12-05T04:51:12.415Z,15.98
2022-12-05T04:53:41.507Z,13.98
2022-12-05T04:56:10.614Z,12.95
2022-12-05T04:58:37.311Z,13.10
2022-12-05T05:01:03.913Z,12.88
2022-12-05T05:03:38.495Z,11.55
2022-12-05T05:06:05.602Z,12.65
2022-12-05T05:08:32.338Z,12.77
2022-12-05T05:11:13.167Z,12.05
2022-12-05T05:13:39.776Z,12.73
2022-12-05T05:16:07.884Z,12.05
2022-12-05T05:18:34.663Z,12.90
2022-12-05T05:21:01.400Z,12.00
2022-12-05T05:23:28.302Z,13.43
2022-12-05T05:25:57.912Z,13.02
2022-12-05T05:28:24.540Z,13.45
2022-12-05T05:30:51.295Z,13.07
2022-12-05T05:33:18.051Z,14.63
2022-12-05T05:35:46.837Z,13.55
2022-12-05T05:38:13.463Z,14.52
2022-12-05T05:40:40.099Z,14.82
2022-12-05T05:43:06.808Z,13.55
2022-12-05T05:45:33.494Z,13.98
2022-12-05T05:48:00.161Z,13.60
2022-12-05T05:50:26.931Z,13.43
2022-12-05T05:52:53.558Z,12.45
2022-12-05T05:55:20.517Z,12.35
2022-12-05T05:57:47.135Z,13.23
2022-12-05T06:00:15.565Z,12.57
2022-12-05T06:02:42.719Z,11.98
2022-12-05T06:05:09.851Z,11.90
2022-12-05T06:07:36.533Z,12.48
2022-12-05T06:10:04.377Z,12.35
2022-12-05T06:12:31.054Z,11.90
2022-12-05T06:14:57.696Z,12.88
2022-12-05T06:17:24.324Z,12.07
2022-12-05T06:19:54.217Z,11.93
2022-12-05T06:22:20.857Z,12.05
2022-12-05T06:24:47.486Z,13.18
2022-12-05T06:27:14.190Z,13.18
2022-12-05T06:29:41.173Z,12.95
2022-12-05T06:32:11.220Z,13.13
2022-12-05T06:34:37.956Z,12.95
2022-12-05T06:37:04.649Z,12.77
2022-12-05T06:39:31.265Z,12.30
2022-12-05T06:41:58.003Z,12.30
2022-12-05T06:44:27.043Z,11.57
2022-12-05T06:46:54.460Z,12.90
2022-12-05T06:49:27.866Z,13.43
2022-12-05T06:51:57.690Z,13.77
2022-12-05T06:54:24.356Z,13.25
2022-12-05T06:56:51.005Z,13.80
2022-12-05T06:59:17.651Z,13.55
2022-12-05T07:01:46.363Z,14.65
2022-12-05T07:04:20.684Z,13.98
2022-12-05T07:06:51.090Z,14.43
2022-12-05T07:09:20.677Z,14.23
2022-12-05T07:11:50.292Z,13.80
2022-12-05T07:14:46.251Z,14.48
2022-12-05T07:17:05.331Z,14.02
2022-12-05T07:19:32.088Z,13.88
2022-12-05T07:21:58.867Z,14.88
2022-12-05T07:24:26.923Z,15.88
2022-12-05T07:26:53.679Z,15.27
2022-12-05T07:29:20.579Z,14.80
2022-12-05T07:31:47.259Z,15.25
2022-12-05T07:34:13.999Z,15.63
2022-12-05T07:36:40.624Z,15.15
2022-12-05T07:39:07.338Z,15.23
2022-12-05T07:41:35.031Z,16.45
2022-12-05T07:44:02.020Z,15.45
2022-12-05T07:46:29.627Z,15.65
2022-12-05T07:48:57.583Z,14.82
2022-12-05T07:51:24.348Z,16.08
2022-12-05T07:53:51.100Z,16.92
2022-12-05T07:56:18.650Z,15.10
2022-12-05T07:58:47.737Z,16.13
2022-12-05T08:01:17.782Z,14.80
2022-12-05T08:03:44.751Z,14.85
2022-12-05T08:06:15.556Z,14.63
2022-12-05T08:08:43.183Z,15.35
2022-12-05T08:11:11.372Z,13.90
2022-12-05T08:13:38.428Z,14.35
2022-12-05T08:16:08.437Z,15.43
2022-12-05T08:18:35.155Z,15.55
2022-12-05T08:21:03.332Z,15.63
2022-12-05T08:23:31.693Z,16.02
2022-12-05T08:26:04.111Z,16.00
2022-12-05T08:28:31.132Z,15.55
2022-12-05T08:31:05.204Z,16.38
2022-12-05T08:33:32.016Z,16.15
2022-12-05T08:36:01.464Z,17.17
2022-12-05T08:38:28.380Z,17.67
2022-12-05T08:40:55.075Z,16.33
2022-12-05T08:43:21.641Z,17.40
2022-12-05T08:45:51.321Z,18.77
2022-12-05T08:48:18.459Z,17.23
2022-12-05T08:50:45.530Z,18.60
2022-12-05T08:53:12.424Z,16.60
2022-12-05T08:55:39.197Z,15.48
2022-12-05T08:58:06.266Z,18.40
2022-12-05T09:00:32.882Z,17.42
2022-12-05T09:02:59.683Z,17.85
2022-12-05T09:05:28.686Z,18.90
2022-12-05T09:07:56.107Z,19.13
2022-12-05T09:10:22.857Z,19.50
2022-12-05T09:12:51.336Z,19.05
2022-12-05T09:15:18.548Z,19.98
2022-12-05T09:17:45.215Z,18.80
2022-12-05T09:20:13.952Z,18.63
2022-12-05T09:22:41.510Z,18.00
2022-12-05T09:25:08.950Z,18.63
2022-12-05T09:27:35.610Z,18.73
2022-12-05T09:30:02.237Z,19.08
2022-12-05T09:32:30.094Z,19.25
2022-12-05T09:34:57.076Z,19.33
2022-12-05T09:37:38.658Z,18.75
2022-12-05T09:40:06.519Z,17.48
2022-12-05T09:42:40.889Z,18.73
2022-12-05T09:45:14.565Z,17.55
2022-12-05T09:47:51.716Z,19.33
2022-12-05T09:50:45.803Z,18.10
2022-12-05T09:53:18.321Z,17.60
2022-12-05T09:55:53.559Z,16.73
2022-12-05T09:58:38.134Z,18.00
2022-12-05T10:01:21.392Z,17.48
2022-12-05T10:04:18.724Z,18.25
2022-12-05T10:09:24.939Z,17.70
2022-12-05T10:12:13.917Z,17.67
2022-12-05T10:14:51.582Z,16.88
2022-12-05T10:17:35.347Z,15.93
2022-12-05T10:20:15.041Z,14.77
2022-12-05T10:22:57.058Z,13.70
2022-12-05T10:25:27.492Z,14.18
2022-12-05T10:28:00.113Z,14.32
2022-12-05T10:30:32.229Z,14.07
2022-12-05T10:32:59.030Z,14.07
2022-12-05T10:35:28.697Z,13.05
2022-12-05T10:38:03.056Z,13.43
2022-12-05T10:40:40.663Z,12.35
2022-12-05T10:43:10.254Z,12.07
2022-12-05T10:45:42.779Z,13.25
2022-12-05T10:48:12.349Z,13.35
2022-12-05T10:50:42.411Z,11.65
2022-12-05T10:53:15.353Z,13.27
2022-12-05T10:56:06.404Z,12.10
2022-12-05T10:58:32.371Z,12.05
2022-12-05T11:01:08.584Z,13.15
2022-12-05T11:06:25.752Z,11.77
2022-12-05T11:09:05.572Z,12.20
2022-12-05T11:11:33.928Z,13.48
2022-12-05T11:14:03.865Z,13.10
2022-12-05T11:16:34.843Z,13.45
2022-12-05T11:19:32.422Z,13.32
2022-12-05T11:22:00.243Z,12.82
2022-12-05T11:24:31.487Z,11.52
2022-12-05T11:27:01.543Z,12.27
2022-12-05T11:29:35.843Z,11.82
2022-12-05T11:32:06.303Z,11.63
2022-12-05T11:34:42.792Z,11.48
2022-12-05T11:37:15.009Z,10.43
2022-12-05T11:39:41.718Z,9.25
2022-12-05T11:42:21.213Z,10.48
2022-12-05T11:45:02.988Z,10.65
2022-12-05T11:47:40.788Z,9.98
2022-12-05T11:50:15.109Z,10.70
2022-12-05T11:53:12.252Z,9.98
2022-12-05T11:55:46.044Z,10.15
2022-12-05T11:58:38.098Z,10.50
2022-12-05T12:01:35.337Z,10.68
2022-12-05T12:04:34.053Z,9.52
2022-12-05T12:07:16.986Z,9.52
2022-12-05T12:10:16.449Z,9.73
2022-12-05T12:12:52.170Z,9.93
2022-12-05T12:15:35.040Z,9.57
2022-12-05T12:18:25.458Z,8.73
2022-12-05T12:21:04.865Z,9.18
2022-12-05T12:23:47.875Z,9.07
2022-12-05T12:26:19.559Z,7.85
2022-12-05T12:29:02.147Z,8.77
2022-12-05T12:31:55.204Z,8.80
2022-12-05T12:34:49.578Z,10.30
2022-12-05T12:37:27.027Z,9.60
2022-12-05T12:40:09.999Z,9.63
2022-12-05T12:42:48.728Z,9.65
2022-12-05T12:45:47.799Z,10.20
2022-12-05T12:48:26.615Z,9.77
2022-12-05T12:50:54.892Z,10.18
2022-12-05T12:53:57.271Z,10.07
2022-12-05T12:56:24.871Z,9.82
2022-12-05T12:58:55.023Z,10.13
2022-12-05T13:01:33.098Z,9.25
2022-12-05T13:04:12.538Z,10.60
2022-12-05T13:06:46.522Z,8.68
2022-12-05T13:09:26.695Z,9.07
2022-12-05T13:11:54.968Z,9.65
2022-12-05T13:14:25.825Z,9.70
2022-12-05T13:16:54.849Z,9.63
2022-12-05T13:19:37.513Z,9.02
2022-12-05T13:22:05.993Z,9.60
2022-12-05T13:24:32.717Z,10.48
2022-12-05T13:27:05.334Z,9.40
2022-12-05T13:29:36.438Z,10.85
2022-12-05T13:32:05.832Z,9.00
2022-12-05T13:34:34.712Z,9.90
2022-12-05T13:37:26.235Z,9.50
2022-12-05T13:40:12.084Z,9.82
2022-12-05T13:42:39.087Z,9.50
2022-12-05T13:45:05.681Z,9.27
2022-12-05T13:47:48.964Z,8.80
2022-12-05T13:50:31.791Z,8.98
2022-12-05T13:53:04.018Z,9.68
2022-12-05T13:55:36.669Z,9.25
2022-12-05T13:58:23.325Z,9.63
2022-12-05T14:00:54.298Z,9.40
2022-12-05T14:03:21.963Z,9.18
2022-12-05T14:05:52.527Z,8.88
2022-12-05T14:08:49.691Z,10.10
2022-12-05T14:11:16.509Z,9.00
2022-12-05T14:13:45.044Z,9.60
2022-12-05T14:16:44.374Z,8.98
2022-12-05T14:19:33.896Z,10.40
2022-12-05T14:22:21.833Z,9.65
2022-12-05T14:25:04.866Z,8.77
2022-12-05T14:27:44.267Z,8.10
2022-12-05T14:30:22.638Z,8.90
2022-12-05T14:32:52.731Z,8.30
2022-12-05T14:35:33.160Z,8.15
2022-12-05T14:38:04.045Z,8.32
2022-12-05T14:40:36.201Z,8.43
2022-12-05T14:43:05.774Z,9.23
2022-12-05T14:45:48.085Z,9.98
2022-12-05T14:48:14.834Z,9.95
2022-12-05T14:50:48.551Z,10.25
2022-12-05T14:53:15.224Z,10.10
2022-12-05T14:55:45.000Z,10.02
2022-12-05T14:58:20.298Z,9.80
2022-12-05T15:00:57.269Z,8.80
2022-12-05T15:03:31.348Z,7.90
2022-12-05T15:06:03.536Z,7.43
2022-12-05T15:08:39.161Z,7.25
2022-12-05T15:11:05.789Z,8.13
2022-12-05T15:13:33.237Z,8.45
2022-12-05T15:16:03.015Z,8.20
2022-12-05T15:18:36.613Z,8.02
2022-12-05T15:21:24.900Z,7.93
2022-12-05T15:24:04.672Z,7.60
2022-12-05T15:26:49.288Z,7.80
2022-12-05T15:29:23.692Z,8.25
2022-12-05T15:32:07.323Z,8.00
2022-12-05T15:34:44.051Z,7.40
2022-12-05T15:37:13.860Z,8.02
2022-12-05T15:39:56.694Z,8.02
2022-12-05T15:42:29.921Z,8.20
2022-12-05T15:45:23.430Z,9.10
2022-12-05T15:47:54.195Z,8.20
2022-12-05T15:50:25.023Z,8.13
2022-12-05T15:52:56.460Z,8.02
2022-12-05T15:55:32.422Z,8.52
2022-12-05T15:58:13.064Z,8.50
2022-12-05T16:00:45.892Z,9.48
2022-12-05T16:03:20.619Z,9.20
2022-12-05T16:05:57.242Z,9.05
2022-12-05T16:08:24.713Z,8.63
2022-12-05T16:10:52.036Z,7.90
2022-12-05T16:13:25.003Z,9.50
2022-12-05T16:15:54.749Z,9.25
2022-12-05T16:18:26.867Z,10.98
2022-12-05T16:20:53.936Z,9.23
2022-12-05T16:23:30.533Z,9.40
2022-12-05T16:26:12.575Z,8.77
2022-12-05T16:28:39.608Z,7.90
2022-12-05T16:31:06.946Z,9.20
2022-12-05T16:33:36.563Z,8.45
2022-12-05T16:36:13.358Z,9.25
2022-12-05T16:38:43.288Z,9.38
2022-12-05T16:41:17.189Z,9.25
2022-12-05T16:43:45.827Z,8.65
2022-12-05T16:46:13.633Z,8.82
2022-12-05T16:48:44.621Z,8.88
2022-12-05T16:51:11.306Z,8.60
2022-12-05T16:53:39.424Z,8.73
2022-12-05T16:56:10.443Z,9.35
2022-12-05T16:58:37.092Z,9.15
2022-12-05T17:01:06.655Z,9.20
2022-12-05T17:03:35.741Z,8.85
2022-12-05T17:06:03.669Z,9.20
2022-12-05T17:08:30.365Z,10.20
2022-12-05T17:10:58.072Z,9.82
2022-12-05T17:13:25.152Z,9.70
2022-12-05T17:15:51.824Z,10.10
2022-12-05T17:18:27.996Z,9.38
2022-12-05T17:20:57.579Z,9.77
2022-12-05T17:23:24.240Z,10.27
2022-12-05T17:25:54.560Z,9.15
2022-12-05T17:28:21.597Z,8.18
2022-12-05T17:30:48.435Z,9.20
2022-12-05T17:33:17.945Z,8.45
2022-12-05T17:35:45.098Z,8.90
2022-12-05T17:38:12.154Z,9.48
2022-12-05T17:40:39.265Z,10.70
2022-12-05T17:43:06.263Z,11.32
2022-12-05T17:45:33.491Z,11.68
2022-12-05T17:48:00.179Z,10.20
2022-12-05T17:50:27.948Z,10.05
2022-12-05T17:52:56.930Z,8.93
2022-12-05T17:55:28.156Z,8.93
2022-12-05T17:57:55.836Z,9.52
2022-12-05T18:00:24.535Z,9.85
2022-12-05T18:02:52.528Z,9.38
2022-12-05T18:05:19.865Z,14.70
2022-12-05T18:07:47.423Z,10.73
2022-12-05T18:10:17.708Z,9.13
2022-12-05T18:12:44.588Z,8.73
2022-12-05T18:15:12.329Z,8.80
2022-12-05T18:17:39.405Z,10.75
2022-12-05T18:20:09.228Z,9.75
2022-12-05T18:22:39.994Z,9.80
2022-12-05T18:25:07.603Z,9.40
2022-12-05T18:27:35.466Z,9.27
2022-12-05T18:30:03.770Z,8.75
2022-12-05T18:32:30.763Z,8.65
2022-12-05T18:34:59.129Z,9.27
2022-12-05T18:37:29.255Z,9.27
2022-12-05T18:39:56.482Z,9.40
2022-12-05T18:42:23.570Z,9.43
2022-12-05T18:44:50.386Z,8.40
2022-12-05T18:47:17.196Z,8.70
2022-12-05T18:49:43.856Z,9.02
2022-12-05T18:52:10.494Z,9.02
2022-12-05T18:54:37.147Z,8.25
2022-12-05T18:57:03.890Z,7.75
2022-12-05T18:59:30.854Z,7.95
2022-12-05T19:02:00.473Z,8.50
2022-12-05T19:04:28.884Z,8.25
2022-12-05T19:06:58.089Z,8.70
2022-12-05T19:09:27.376Z,8.15
2022-12-05T19:11:56.998Z,9.10
2022-12-05T19:14:25.001Z,7.97
2022-12-05T19:16:59.947Z,7.97
2022-12-05T19:19:27.802Z,7.37
2022-12-05T19:21:54.689Z,8.00
2022-12-05T19:24:21.622Z,7.07
2022-12-05T19:26:48.286Z,7.63
2022-12-05T19:29:16.711Z,7.78
2022-12-05T19:31:43.966Z,7.85
2022-12-05T19:34:11.504Z,8.07
2022-12-05T19:36:41.808Z,9.07
2022-12-05T19:39:16.015Z,9.52
2022-12-05T19:41:43.159Z,9.10
2022-12-05T19:44:10.065Z,9.05
2022-12-05T19:46:37.649Z,8.63
2022-12-05T19:49:07.344Z,8.85
2022-12-05T19:51:34.624Z,8.13
2022-12-05T19:54:03.003Z,7.88
2022-12-05T19:56:31.397Z,7.80
2022-12-05T19:58:59.528Z,8.02
2022-12-05T20:01:26.295Z,8.68
2022-12-05T20:03:55.841Z,9.32
2022-12-05T20:06:23.782Z,8.32
2022-12-05T20:08:52.540Z,9.80
2022-12-05T20:11:21.999Z,10.63
2022-12-05T20:13:48.757Z,10.73
2022-12-05T20:16:18.851Z,9.63
2022-12-05T20:18:45.971Z,8.70
2022-12-05T20:21:15.653Z,8.23
2022-12-05T20:23:42.654Z,9.40
2022-12-05T20:26:13.062Z,9.10
2022-12-05T20:28:39.986Z,10.07
2022-12-05T20:31:08.683Z,9.95
2022-12-05T20:33:35.976Z,9.60
2022-12-05T20:36:06.654Z,11.20
2022-12-05T20:38:33.492Z,10.50
2022-12-05T20:41:01.862Z,10.57
2022-12-05T20:43:29.292Z,9.80
2022-12-05T20:45:57.032Z,8.93
2022-12-05T20:48:26.128Z,8.68
2022-12-05T20:50:54.568Z,9.57
2022-12-05T20:53:22.274Z,9.23
2022-12-05T20:55:48.888Z,9.63
2022-12-05T20:58:15.488Z,9.35
2022-12-05T21:00:43.700Z,9.63
2022-12-05T21:03:16.864Z,9.35
2022-12-05T21:05:43.871Z,9.32
2022-12-05T21:08:10.579Z,9.07
2022-12-05T21:10:37.397Z,8.98
2022-12-05T21:13:04.030Z,8.52
2022-12-05T21:15:30.594Z,7.65
2022-12-05T21:17:57.545Z,8.27
2022-12-05T21:20:24.280Z,8.23
2022-12-05T21:22:51.097Z,8.38
2022-12-05T21:25:17.826Z,7.93
2022-12-05T21:27:44.494Z,8.15
2022-12-05T21:30:11.375Z,8.52
2022-12-05T21:32:38.202Z,8.02
2022-12-05T21:35:05.373Z,8.13
2022-12-05T21:37:32.058Z,7.57
2022-12-05T21:39:59.007Z,8.60
2022-12-05T21:42:26.124Z,8.45
2022-12-05T21:44:52.800Z,8.40
2022-12-05T21:47:19.448Z,8.77
2022-12-05T21:49:46.123Z,9.27
2022-12-05T21:52:13.924Z,7.50
2022-12-05T21:54:40.623Z,8.07
2022-12-05T21:57:07.284Z,8.60
2022-12-05T21:59:33.945Z,7.13
2022-12-05T22:02:00.714Z,6.78
2022-12-05T22:04:27.381Z,7.45
2022-12-05T22:06:54.093Z,7.60
2022-12-05T22:09:20.735Z,7.05
2022-12-05T22:11:47.550Z,7.40
2022-12-05T22:14:14.207Z,8.05
2022-12-05T22:16:40.892Z,7.18
2022-12-05T22:19:07.693Z,6.85
2022-12-05T22:21:34.393Z,7.60
2022-12-05T22:24:04.535Z,7.53
2022-12-05T22:26:31.212Z,7.70
2022-12-05T22:28:57.914Z,6.68
2022-12-05T22:31:25.028Z,6.22
2022-12-05T22:33:52.047Z,6.72
2022-12-05T22:36:19.629Z,6.72
2022-12-05T22:38:47.716Z,5.70
2022-12-05T22:41:18.219Z,5.88
2022-12-05T22:43:46.287Z,5.97
2022-12-05T22:46:21.478Z,5.85
2022-12-05T22:48:49.470Z,4.63
2022-12-05T22:51:17.543Z,4.93
2022-12-05T22:53:44.662Z,5.57
2022-12-05T22:56:14.098Z,4.60
2022-12-05T22:58:42.018Z,4.78
2022-12-05T23:01:22.846Z,4.45
2022-12-05T23:03:53.823Z,4.82
2022-12-05T23:06:20.572Z,4.90
2022-12-05T23:08:48.094Z,3.92
2022-12-05T23:11:16.601Z,3.80
2022-12-05T23:13:43.725Z,4.13
2022-12-05T23:16:15.113Z,4.55
2022-12-05T23:18:50.162Z,3.72
2022-12-05T23:21:22.626Z,3.88
2022-12-05T23:23:51.559Z,3.75
2022-12-05T23:26:19.802Z,3.78
2022-12-05T23:28:46.456Z,3.85
2022-12-05T23:31:13.848Z,3.70
2022-12-05T23:33:40.824Z,4.45
2022-12-05T23:36:08.894Z,4.15
2022-12-05T23:38:37.035Z,4.10
2022-12-05T23:41:11.220Z,4.00
2022-12-05T23:43:38.173Z,3.60
2022-12-05T23:46:06.056Z,4.53
2022-12-05T23:48:32.940Z,3.70
2022-12-05T23:51:08.942Z,3.88
2022-12-05T23:53:37.388Z,3.88
2022-12-05T23:56:07.788Z,3.65
2022-12-05T23:58:35.184Z,3.55
